createdAt,value
2023-01-11T00:01:10.023Z,1.40
2023-01-11T00:03:36.807Z,1.38
2023-01-11T00:06:03.867Z,1.60
2023-01-11T00:08:31.673Z,1.55
2023-01-11T00:10:58.702Z,1.17
2023-01-11T00:13:25.417Z,1.20
2023-01-11T00:15:52.370Z,1.20
2023-01-11T00:18:20.680Z,1.35
2023-01-11T00:20:47.820Z,1.42
2023-01-11T00:23:14.904Z,1.30
2023-01-11T00:25:41.631Z,1.10
2023-01-11T00:28:09.062Z,1.60
2023-01-11T00:30:35.993Z,1.52
2023-01-11T00:33:02.976Z,1.88
2023-01-11T00:35:31.424Z,1.63
2023-01-11T00:37:58.686Z,1.70
2023-01-11T00:40:25.548Z,1.60
2023-01-11T00:42:52.993Z,1.40
2023-01-11T00:45:19.744Z,1.50
2023-01-11T00:47:46.613Z,1.60
2023-01-11T00:50:13.758Z,1.65
2023-01-11T00:52:41.944Z,1.88
2023-01-11T00:55:09.591Z,1.63
2023-01-11T00:57:36.489Z,1.50
2023-01-11T01:00:04.994Z,1.77
2023-01-11T01:02:32.250Z,1.38
2023-01-11T01:05:00.028Z,1.80
2023-01-11T01:07:27.172Z,1.33
2023-01-11T01:09:55.582Z,1.30
2023-01-11T01:12:22.922Z,1.60
2023-01-11T01:14:49.632Z,1.63
2023-01-11T01:17:17.226Z,1.48
2023-01-11T01:19:44.416Z,1.50
2023-01-11T01:22:11.248Z,1.40
2023-01-11T01:24:38.009Z,1.40
2023-01-11T01:27:06.260Z,1.42
2023-01-11T01:29:33.382Z,1.48
2023-01-11T01:32:00.143Z,1.30
2023-01-11T01:34:27.111Z,1.50
2023-01-11T01:36:53.962Z,1.30
2023-01-11T01:39:20.989Z,1.50
2023-01-11T01:41:47.696Z,1.30
2023-01-11T01:45:06.402Z,1.50
2023-01-11T01:47:42.631Z,1.73
2023-01-11T01:50:17.557Z,1.30
2023-01-11T01:52:50.225Z,1.33
2023-01-11T01:55:26.688Z,1.67
2023-01-11T01:57:55.398Z,1.50
2023-01-11T02:00:24.148Z,1.52
2023-01-11T02:02:52.263Z,1.23
2023-01-11T02:05:19.871Z,1.30
2023-01-11T02:07:47.502Z,1.35
2023-01-11T02:10:17.668Z,1.55
2023-01-11T02:12:52.643Z,1.67
2023-01-11T02:15:23.741Z,1.60
2023-01-11T02:17:51.377Z,1.55
2023-01-11T02:20:48.462Z,1.13
2023-01-11T02:24:10.163Z,1.50
2023-01-11T02:27:04.793Z,1.35
2023-01-11T02:29:50.296Z,1.50
2023-01-11T02:32:30.787Z,1.40
2023-01-11T02:35:13.996Z,1.30
2023-01-11T02:37:55.281Z,1.08
2023-01-11T02:40:29.748Z,1.27
2023-01-11T02:43:10.095Z,1.00
2023-01-11T02:45:50.634Z,1.25
2023-01-11T02:48:29.954Z,1.08
2023-01-11T02:51:05.823Z,1.20
2023-01-11T02:53:39.694Z,1.17
2023-01-11T02:56:13.626Z,1.20
2023-01-11T02:58:45.119Z,1.10
2023-01-11T03:01:14.888Z,1.33
2023-01-11T03:03:41.703Z,0.90
2023-01-11T03:06:16.964Z,1.10
2023-01-11T03:09:14.387Z,1.10
2023-01-11T03:12:07.719Z,1.15
2023-01-11T03:14:50.577Z,1.40
2023-01-11T03:17:42.271Z,1.10
2023-01-11T03:20:20.664Z,1.05
2023-01-11T03:23:09.897Z,1.00
2023-01-11T03:25:53.652Z,1.13
2023-01-11T03:28:32.323Z,1.40
2023-01-11T03:31:05.937Z,1.05
2023-01-11T03:33:44.516Z,1.10
2023-01-11T03:36:19.261Z,1.17
2023-01-11T03:38:54.280Z,0.90
2023-01-11T03:41:26.962Z,1.15
2023-01-11T03:43:59.871Z,1.20
2023-01-11T03:46:34.479Z,1.20
2023-01-11T03:49:10.348Z,0.85
2023-01-11T03:51:43.046Z,1.08
2023-01-11T03:54:15.430Z,1.00
2023-01-11T03:56:59.318Z,1.02
2023-01-11T03:59:27.326Z,1.08
2023-01-11T04:01:54.622Z,1.10
2023-01-11T04:04:22.758Z,1.00
2023-01-11T04:06:50.019Z,1.00
2023-01-11T04:09:17.011Z,0.90
2023-01-11T04:11:44.204Z,0.88
2023-01-11T04:14:11.497Z,0.93
2023-01-11T04:16:38.319Z,1.00
2023-01-11T04:19:05.306Z,0.90
2023-01-11T04:21:33.606Z,1.00
2023-01-11T04:24:00.339Z,1.00
2023-01-11T04:26:27.374Z,0.80
2023-01-11T04:28:54.583Z,0.80
2023-01-11T04:31:21.734Z,1.02
2023-01-11T04:33:48.655Z,0.98
2023-01-11T04:36:15.680Z,0.90
2023-01-11T04:38:44.195Z,0.90
2023-01-11T04:41:10.940Z,0.85
2023-01-11T04:43:37.883Z,0.80
2023-01-11T04:46:06.997Z,0.70
2023-01-11T04:48:33.748Z,0.70
2023-01-11T04:51:00.739Z,0.88
2023-01-11T04:53:27.589Z,0.80
2023-01-11T04:56:00.394Z,0.70
2023-01-11T04:58:30.158Z,0.80
2023-01-11T05:00:57.447Z,0.70
2023-01-11T05:03:25.168Z,0.70
2023-01-11T05:05:56.027Z,0.68
2023-01-11T05:08:23.666Z,0.70
2023-01-11T05:10:52.726Z,0.70
2023-01-11T05:13:21.783Z,0.68
2023-01-11T05:15:48.698Z,0.73
2023-01-11T05:18:15.447Z,0.80
2023-01-11T05:20:42.787Z,0.68
2023-01-11T05:23:09.995Z,0.63
2023-01-11T05:25:40.675Z,0.70
2023-01-11T05:28:07.751Z,0.80
2023-01-11T05:30:35.879Z,0.70
2023-01-11T05:33:02.839Z,0.70
2023-01-11T05:35:29.809Z,0.88
2023-01-11T05:37:56.584Z,0.52
2023-01-11T05:40:23.342Z,0.70
2023-01-11T05:42:50.201Z,0.63
2023-01-11T05:45:17.176Z,0.50
2023-01-11T05:47:45.393Z,0.60
2023-01-11T05:50:12.275Z,0.73
2023-01-11T05:52:39.041Z,0.70
2023-01-11T05:55:08.114Z,0.68
2023-01-11T05:57:34.976Z,0.52
2023-01-11T06:00:02.243Z,0.60
2023-01-11T06:02:34.686Z,0.63
2023-01-11T06:05:03.706Z,0.60
2023-01-11T06:07:30.502Z,0.50
2023-01-11T06:09:57.284Z,0.70
2023-01-11T06:12:24.238Z,0.60
2023-01-11T06:14:51.161Z,0.50
2023-01-11T06:17:18.081Z,0.50
2023-01-11T06:19:44.902Z,0.60
2023-01-11T06:22:13.468Z,0.50
2023-01-11T06:24:40.218Z,0.40
2023-01-11T06:27:06.971Z,0.50
2023-01-11T06:29:34.602Z,0.50
2023-01-11T06:32:01.518Z,0.50
2023-01-11T06:34:28.458Z,0.45
2023-01-11T06:36:55.849Z,0.40
2023-01-11T06:39:26.107Z,0.50
2023-01-11T06:41:52.887Z,0.50
2023-01-11T06:44:19.800Z,0.60
2023-01-11T06:46:46.562Z,0.40
2023-01-11T06:49:13.500Z,0.50
2023-01-11T06:51:40.231Z,0.70
2023-01-11T06:56:59.662Z,0.50
2023-01-11T06:59:26.456Z,0.60
2023-01-11T07:01:53.372Z,0.60
2023-01-11T07:04:20.083Z,0.70
2023-01-11T07:06:46.993Z,0.70
2023-01-11T07:09:14.731Z,0.73
2023-01-11T07:11:41.957Z,0.70
2023-01-11T07:14:10.273Z,0.70
2023-01-11T07:16:38.807Z,0.80
2023-01-11T07:21:57.035Z,0.82
2023-01-11T07:24:29.806Z,0.65
2023-01-11T07:26:56.606Z,0.70
2023-01-11T07:29:25.466Z,0.90
2023-01-11T07:31:52.206Z,1.00
2023-01-11T07:34:19.219Z,1.10
2023-01-11T07:36:46.246Z,1.08
2023-01-11T07:39:13.055Z,0.90
2023-01-11T07:41:42.194Z,1.10
2023-01-11T07:44:11.990Z,1.23
2023-01-11T07:46:40.248Z,1.10
2023-01-11T07:49:07.192Z,1.50
2023-01-11T07:51:33.986Z,1.20
2023-01-11T07:54:00.963Z,1.00
2023-01-11T07:56:27.985Z,1.20
2023-01-11T07:58:55.070Z,1.23
2023-01-11T08:01:22.686Z,1.30
2023-01-11T08:03:51.055Z,1.27
2023-01-11T08:06:17.919Z,0.95
2023-01-11T08:08:45.488Z,1.00
2023-01-11T08:11:12.463Z,1.02
2023-01-11T08:13:39.170Z,0.90
2023-01-11T08:16:06.573Z,0.98
2023-01-11T08:18:33.345Z,1.20
2023-01-11T08:21:01.466Z,1.10
2023-01-11T08:23:28.446Z,1.30
2023-01-11T08:25:56.759Z,1.20
2023-01-11T08:28:23.537Z,1.30
2023-01-11T08:30:50.348Z,1.10
2023-01-11T08:33:17.100Z,1.17
2023-01-11T08:35:43.863Z,0.85
2023-01-11T08:38:11.959Z,1.00
2023-01-11T08:40:40.028Z,0.90
2023-01-11T08:43:06.807Z,0.88
2023-01-11T08:45:33.818Z,0.82
2023-01-11T08:48:00.610Z,0.93
2023-01-11T08:50:27.807Z,1.05
2023-01-11T08:52:54.610Z,0.88
2023-01-11T08:55:22.864Z,1.00
2023-01-11T08:57:49.681Z,1.23
2023-01-11T09:00:18.155Z,0.95
2023-01-11T09:02:45.013Z,0.90
2023-01-11T09:05:11.856Z,0.95
2023-01-11T09:07:38.840Z,0.80
2023-01-11T09:10:06.951Z,0.90
2023-01-11T09:12:35.602Z,0.90
2023-01-11T09:15:03.627Z,0.80
2023-01-11T09:17:30.558Z,0.75
2023-01-11T09:19:57.807Z,1.00
2023-01-11T09:22:24.603Z,1.10
2023-01-11T09:24:51.368Z,0.82
2023-01-11T09:27:18.433Z,1.00
2023-01-11T09:29:46.593Z,1.00
2023-01-11T09:32:13.517Z,1.02
2023-01-11T09:34:40.387Z,0.93
2023-01-11T09:37:07.300Z,0.80
2023-01-11T09:39:34.709Z,0.80
2023-01-11T09:42:27.615Z,0.73
2023-01-11T09:45:01.164Z,0.70
2023-01-11T09:47:35.233Z,0.77
2023-01-11T09:50:10.041Z,0.70
2023-01-11T09:52:41.631Z,0.77
2023-01-11T09:55:14.560Z,0.60
2023-01-11T09:57:56.867Z,0.70
2023-01-11T10:03:21.406Z,0.50
2023-01-11T10:06:06.655Z,0.70
2023-01-11T10:18:28.737Z,0.90
2023-01-11T10:18:48.823Z,0.85
2023-01-11T10:21:13.527Z,0.68
2023-01-11T10:23:49.464Z,0.70
2023-01-11T10:26:25.517Z,0.68
2023-01-11T10:29:00.381Z,0.80
2023-01-11T10:31:28.966Z,0.82
2023-01-11T10:34:03.185Z,0.65
2023-01-11T10:36:38.659Z,0.98
2023-01-11T10:39:15.999Z,1.00
2023-01-11T10:41:50.300Z,0.60
2023-01-11T10:44:24.395Z,0.70
2023-01-11T10:46:54.274Z,0.80
2023-01-11T10:49:36.255Z,0.77
2023-01-11T10:54:43.283Z,0.90
2023-01-11T10:57:24.406Z,0.80
2023-01-11T11:00:21.110Z,1.00
2023-01-11T11:03:12.994Z,0.70
2023-01-11T11:05:50.016Z,0.80
2023-01-11T11:08:27.378Z,0.80
2023-01-11T11:11:01.377Z,0.88
2023-01-11T11:13:46.287Z,0.80
2023-01-11T11:16:34.050Z,0.98
2023-01-11T11:19:01.069Z,1.00
2023-01-11T11:21:35.512Z,0.90
2023-01-11T11:24:14.441Z,0.80
2023-01-11T11:26:47.318Z,0.75
2023-01-11T11:29:22.261Z,0.90
2023-01-11T11:31:50.707Z,0.80
2023-01-11T11:34:20.357Z,0.70
2023-01-11T11:36:51.605Z,0.70
2023-01-11T11:39:21.917Z,0.97
2023-01-11T11:41:51.735Z,0.75
2023-01-11T11:44:21.899Z,0.75
2023-01-11T11:47:03.488Z,0.57
2023-01-11T11:49:32.455Z,0.65
2023-01-11T11:52:03.497Z,0.98
2023-01-11T11:54:34.132Z,0.80
2023-01-11T11:57:17.166Z,0.85
2023-01-11T11:59:47.743Z,1.00
2023-01-11T12:02:24.807Z,0.90
2023-01-11T12:04:54.047Z,1.00
2023-01-11T12:07:26.887Z,0.70
2023-01-11T12:10:00.754Z,1.00
2023-01-11T12:12:29.598Z,1.00
2023-01-11T12:15:19.308Z,1.20
2023-01-11T12:17:47.076Z,0.93
2023-01-11T12:20:34.347Z,1.10
2023-01-11T12:23:26.422Z,0.80
2023-01-11T12:26:18.597Z,1.10
2023-01-11T12:29:36.046Z,1.15
2023-01-11T12:32:26.411Z,0.85
2023-01-11T12:35:26.266Z,1.13
2023-01-11T12:38:21.912Z,1.10
2023-01-11T12:41:16.629Z,0.70
2023-01-11T12:43:59.686Z,0.77
2023-01-11T12:46:51.759Z,1.05
2023-01-11T12:49:35.664Z,1.17
2023-01-11T12:52:33.940Z,0.98
2023-01-11T12:55:22.055Z,1.30
2023-01-11T12:57:58.516Z,0.90
2023-01-11T13:00:52.968Z,0.93
2023-01-11T13:04:21.019Z,1.40
2023-01-11T13:06:59.018Z,0.90
2023-01-11T13:09:43.869Z,0.93
2023-01-11T13:12:20.801Z,1.20
2023-01-11T13:15:04.879Z,1.10
2023-01-11T13:17:44.224Z,1.20
2023-01-11T13:20:48.694Z,1.10
2023-01-11T13:23:38.759Z,1.42
2023-01-11T13:26:22.617Z,1.08
2023-01-11T13:28:57.662Z,1.30
2023-01-11T13:31:26.780Z,0.90
2023-01-11T13:34:00.139Z,1.08
2023-01-11T13:36:38.488Z,1.23
2023-01-11T13:39:16.396Z,0.88
2023-01-11T13:41:48.851Z,1.30
2023-01-11T13:44:23.136Z,1.27
2023-01-11T13:47:02.803Z,1.15
2023-01-11T13:49:47.369Z,1.40
2023-01-11T13:52:17.572Z,1.20
2023-01-11T13:54:58.495Z,1.25
2023-01-11T13:57:34.962Z,1.10
2023-01-11T14:00:14.864Z,1.25
2023-01-11T14:02:49.423Z,1.17
2023-01-11T14:05:19.723Z,1.13
2023-01-11T14:08:06.947Z,1.05
2023-01-11T14:10:42.924Z,1.10
2023-01-11T14:13:43.418Z,1.20
2023-01-11T14:16:21.516Z,0.95
2023-01-11T14:19:03.445Z,1.10
2023-01-11T14:21:43.652Z,1.00
2023-01-11T14:24:12.130Z,1.10
2023-01-11T14:27:05.825Z,1.00
2023-01-11T14:30:16.433Z,1.10
2023-01-11T14:33:06.722Z,1.55
2023-01-11T14:35:57.571Z,1.08
2023-01-11T14:38:59.198Z,0.95
2023-01-11T14:42:00.608Z,0.98
2023-01-11T14:44:51.926Z,1.00
2023-01-11T14:47:54.647Z,0.77
2023-01-11T14:53:31.128Z,1.63
2023-01-11T14:55:58.098Z,1.05
2023-01-11T14:58:27.661Z,1.05
2023-01-11T15:01:11.143Z,0.73
2023-01-11T15:03:56.547Z,1.52
2023-01-11T15:06:23.686Z,0.77
2023-01-11T15:08:55.387Z,1.20
2023-01-11T15:11:33.487Z,1.20
2023-01-11T15:14:06.944Z,1.00
2023-01-11T15:16:36.490Z,1.02
2023-01-11T15:19:08.084Z,1.00
2023-01-11T15:21:40.964Z,1.10
2023-01-11T15:24:42.241Z,1.55
2023-01-11T15:27:37.987Z,1.35
2023-01-11T15:30:08.149Z,1.30
2023-01-11T15:32:36.470Z,1.08
2023-01-11T15:35:33.532Z,1.20
2023-01-11T15:38:13.896Z,1.60
2023-01-11T15:40:45.114Z,1.20
2023-01-11T15:43:54.640Z,0.93
2023-01-11T15:46:58.016Z,1.17
2023-01-11T15:50:04.910Z,1.02
2023-01-11T15:53:22.464Z,0.98
2023-01-11T15:56:26.023Z,1.00
2023-01-11T15:59:33.780Z,1.10
2023-01-11T16:02:58.871Z,1.30
2023-01-11T16:05:30.216Z,1.50
2023-01-11T16:08:10.358Z,1.23
2023-01-11T16:10:56.069Z,1.25
2023-01-11T16:13:57.563Z,1.15
2023-01-11T16:16:28.556Z,1.30
2023-01-11T16:19:03.746Z,1.10
2023-01-11T16:21:34.224Z,1.80
2023-01-11T16:24:04.279Z,1.35
2023-01-11T16:26:31.450Z,1.40
2023-01-11T16:28:59.616Z,1.20
2023-01-11T16:31:58.333Z,1.30
2023-01-11T16:34:26.041Z,1.38
2023-01-11T16:36:52.833Z,1.40
2023-01-11T16:39:24.327Z,1.33
2023-01-11T16:41:58.152Z,1.40
2023-01-11T16:44:40.775Z,1.70
2023-01-11T16:47:14.407Z,2.60
2023-01-11T16:49:44.230Z,1.50
2023-01-11T16:52:37.088Z,1.38
2023-01-11T16:57:47.699Z,1.38
2023-01-11T17:00:27.400Z,1.48
2023-01-11T17:03:28.252Z,1.55
2023-01-11T17:06:18.220Z,1.50
2023-01-11T17:08:48.148Z,1.42
2023-01-11T17:11:26.470Z,1.80
2023-01-11T17:14:32.939Z,1.20
2023-01-11T17:17:04.272Z,1.13
2023-01-11T17:19:35.252Z,1.50
2023-01-11T17:22:06.661Z,1.17
2023-01-11T17:24:40.648Z,1.10
2023-01-11T17:27:16.678Z,1.33
2023-01-11T17:29:46.240Z,1.15
2023-01-11T17:32:21.593Z,1.17
2023-01-11T17:34:50.395Z,1.20
2023-01-11T17:37:19.148Z,1.52
2023-01-11T17:39:50.051Z,1.58
2023-01-11T17:42:18.158Z,1.50
2023-01-11T17:44:47.542Z,2.13
2023-01-11T17:47:16.102Z,1.75
2023-01-11T17:49:42.916Z,1.55
2023-01-11T17:52:18.311Z,1.73
2023-01-11T17:54:45.169Z,1.80
2023-01-11T17:57:14.304Z,1.88
2023-01-11T17:59:41.088Z,2.15
2023-01-11T18:02:14.349Z,2.05
2023-01-11T18:04:43.041Z,1.60
2023-01-11T18:07:17.235Z,2.08
2023-01-11T18:09:48.529Z,2.00
2023-01-11T18:12:21.184Z,1.60
2023-01-11T18:14:52.717Z,1.50
2023-01-11T18:17:35.936Z,1.48
2023-01-11T18:20:33.790Z,2.03
2023-01-11T18:23:05.375Z,1.65
2023-01-11T18:25:34.791Z,1.65
2023-01-11T18:28:29.410Z,1.70
2023-01-11T18:30:59.427Z,1.70
2023-01-11T18:33:29.884Z,1.85
2023-01-11T18:36:01.561Z,2.03
2023-01-11T18:38:31.171Z,1.60
2023-01-11T18:41:03.650Z,1.60
2023-01-11T18:43:31.302Z,1.83
2023-01-11T18:45:58.113Z,2.22
2023-01-11T18:48:24.879Z,1.70
2023-01-11T18:50:52.244Z,1.60
2023-01-11T18:53:45.255Z,2.17
2023-01-11T18:56:12.176Z,1.85
2023-01-11T18:58:38.896Z,2.10
2023-01-11T19:01:07.833Z,1.80
2023-01-11T19:03:34.983Z,2.35
2023-01-11T19:06:01.944Z,2.10
2023-01-11T19:08:30.122Z,1.70
2023-01-11T19:10:58.931Z,2.17
2023-01-11T19:13:25.778Z,1.88
2023-01-11T19:15:52.509Z,2.03
2023-01-11T19:18:19.361Z,2.13
2023-01-11T19:20:46.091Z,1.63
2023-01-11T19:23:13.090Z,2.28
2023-01-11T19:25:39.868Z,1.92
2023-01-11T19:28:07.947Z,2.53
2023-01-11T19:30:34.862Z,2.10
2023-01-11T19:33:01.704Z,2.47
2023-01-11T19:35:28.591Z,2.38
2023-01-11T19:37:56.007Z,2.42
2023-01-11T19:40:22.733Z,2.22
2023-01-11T19:42:49.478Z,2.17
2023-01-11T19:45:18.136Z,2.70
2023-01-11T19:47:45.134Z,1.92
2023-01-11T19:50:11.860Z,2.20
2023-01-11T19:52:38.853Z,2.58
2023-01-11T19:55:06.760Z,1.85
2023-01-11T19:57:33.835Z,2.17
2023-01-11T20:00:00.587Z,2.95
2023-01-11T20:02:28.787Z,1.92
2023-01-11T20:04:55.536Z,2.78
2023-01-11T20:07:22.442Z,2.65
2023-01-11T20:09:49.364Z,2.40
2023-01-11T20:12:16.119Z,2.97
2023-01-11T20:14:43.588Z,2.08
2023-01-11T20:17:10.638Z,2.70
2023-01-11T20:19:39.417Z,2.58
2023-01-11T20:22:06.307Z,2.13
2023-01-11T20:24:33.449Z,2.30
2023-01-11T20:27:01.836Z,1.90
2023-01-11T20:29:28.767Z,1.95
2023-01-11T20:31:58.162Z,1.98
2023-01-11T20:34:29.962Z,2.15
2023-01-11T20:36:58.027Z,2.28
2023-01-11T20:39:24.793Z,2.20
2023-01-11T20:41:51.557Z,2.45
2023-01-11T20:44:22.651Z,2.00
2023-01-11T20:46:50.947Z,2.35
2023-01-11T20:49:19.025Z,1.95
2023-01-11T20:51:46.650Z,2.10
2023-01-11T20:54:18.138Z,1.80
2023-01-11T20:56:45.294Z,1.83
2023-01-11T20:59:13.207Z,1.70
2023-01-11T21:01:40.520Z,1.90
2023-01-11T21:04:10.332Z,1.60
2023-01-11T21:06:40.089Z,1.90
2023-01-11T21:09:09.541Z,1.80
2023-01-11T21:11:41.722Z,2.30
2023-01-11T21:14:08.647Z,2.10
2023-01-11T21:16:35.375Z,1.52
2023-01-11T21:21:56.395Z,1.70
2023-01-11T21:24:23.134Z,1.67
2023-01-11T21:26:51.350Z,1.77
2023-01-11T21:29:18.202Z,2.28
2023-01-11T21:31:45.069Z,1.63
2023-01-11T21:34:13.788Z,2.10
2023-01-11T21:36:42.443Z,2.00
2023-01-11T21:39:13.169Z,1.80
2023-01-11T21:41:40.164Z,1.90
2023-01-11T21:44:09.927Z,1.88
2023-01-11T21:46:37.094Z,1.83
2023-01-11T21:49:04.275Z,1.33
2023-01-11T21:51:31.331Z,2.25
2023-01-11T21:53:59.793Z,1.48
2023-01-11T21:56:27.758Z,1.80
2023-01-11T21:58:54.510Z,1.77
2023-01-11T22:01:22.957Z,1.70
2023-01-11T22:03:50.624Z,1.60
2023-01-11T22:06:17.755Z,1.83
2023-01-11T22:08:45.777Z,1.73
2023-01-11T22:11:16.928Z,1.92
2023-01-11T22:13:44.401Z,2.00
2023-01-11T22:16:15.302Z,2.40
2023-01-11T22:18:45.081Z,1.92
2023-01-11T22:21:14.952Z,1.80
2023-01-11T22:23:42.425Z,1.70
2023-01-11T22:26:13.478Z,2.03
2023-01-11T22:28:41.419Z,1.70
2023-01-11T22:31:08.419Z,1.90
2023-01-11T22:33:36.831Z,2.28
2023-01-11T22:36:05.930Z,1.80
2023-01-11T22:38:32.752Z,2.35
2023-01-11T22:41:00.171Z,1.58
2023-01-11T22:43:26.943Z,2.15
2023-01-11T22:45:57.831Z,1.80
2023-01-11T22:48:24.738Z,1.63
2023-01-11T22:53:46.139Z,1.70
2023-01-11T22:56:16.695Z,1.70
2023-01-11T22:58:43.499Z,2.25
2023-01-11T23:01:12.114Z,1.70
2023-01-11T23:03:39.118Z,1.95
2023-01-11T23:06:06.919Z,1.65
2023-01-11T23:08:36.134Z,2.20
2023-01-11T23:11:04.622Z,1.48
2023-01-11T23:13:31.418Z,1.60
2023-01-11T23:15:58.271Z,1.77
2023-01-11T23:18:24.997Z,1.45
2023-01-11T23:20:51.952Z,1.80
2023-01-11T23:23:18.785Z,1.27
2023-01-11T23:25:45.811Z,1.38
2023-01-11T23:28:13.923Z,1.40
2023-01-11T23:30:40.939Z,1.60
2023-01-11T23:33:07.871Z,1.40
2023-01-11T23:35:34.691Z,1.60
2023-01-11T23:38:01.456Z,1.52
2023-01-11T23:40:28.503Z,1.95
2023-01-11T23:42:55.248Z,1.38
2023-01-11T23:45:23.416Z,1.70
2023-01-11T23:47:50.373Z,1.50
2023-01-11T23:50:17.297Z,1.48
2023-01-11T23:52:44.364Z,1.38
2023-01-11T23:55:11.445Z,1.55
2023-01-11T23:57:38.539Z,1.00
